createdAt,value
2023-05-09T06:36:57.456Z,2.44
2023-05-09T06:42:03.854Z,2.09
2023-05-09T06:47:10.517Z,2.69
2023-05-09T06:52:16.005Z,2.42
2023-05-09T06:57:19.695Z,2.09
2023-05-09T07:02:23.223Z,1.75
2023-05-09T07:07:30.613Z,1.67
2023-05-09T07:12:34.299Z,0.78
2023-05-09T07:17:37.761Z,1.13
2023-05-09T07:22:42.590Z,1.43
2023-05-09T07:27:46.574Z,1.05
2023-05-09T07:32:50.391Z,1.15
2023-05-09T07:37:55.316Z,1.15
2023-05-09T07:42:58.800Z,0.58
2023-05-09T07:48:02.320Z,-0.08
2023-05-09T07:53:10.833Z,-0.12
2023-05-09T07:58:14.690Z,-0.37
2023-05-09T08:03:19.613Z,-0.78
2023-05-09T08:08:25.374Z,-0.84
2023-05-09T08:13:29.654Z,-1.12
2023-05-09T08:18:33.960Z,-1.25
2023-05-09T08:23:40.621Z,-1.41
2023-05-09T08:28:44.747Z,-1.28
2023-05-09T08:33:48.356Z,-1.22
2023-05-09T08:38:53.249Z,-1.15
2023-05-09T08:43:57.110Z,-1.13
2023-05-09T08:49:01.845Z,-0.94
2023-05-09T08:54:21.415Z,-1.22
2023-05-09T08:59:27.209Z,-0.99
2023-05-09T09:04:30.958Z,-0.77
2023-05-09T09:09:36.917Z,-1.12
2023-05-09T09:14:42.885Z,-1.00
2023-05-09T09:19:50.562Z,-0.93
2023-05-09T09:24:55.873Z,-0.62
2023-05-09T09:30:07.547Z,-0.55
2023-05-09T09:35:39.530Z,-0.25
2023-05-09T09:40:53.928Z,-0.41
2023-05-09T09:45:58.206Z,-0.37
2023-05-09T09:51:05.150Z,-0.17
2023-05-09T09:56:11.339Z,-0.19
2023-05-09T10:01:16.446Z,0.16
2023-05-09T10:06:20.296Z,0.13
2023-05-09T10:11:25.223Z,0.27
2023-05-09T10:16:40.173Z,0.66
2023-05-09T10:21:54.340Z,0.48
2023-05-09T10:27:05.875Z,0.55
2023-05-09T10:32:13.796Z,0.61
2023-05-09T10:37:18.198Z,0.86
2023-05-09T10:42:25.545Z,1.11
2023-05-09T10:47:30.643Z,1.20
2023-05-09T10:52:34.603Z,1.19
2023-05-09T10:57:40.423Z,1.29
2023-05-09T11:02:43.979Z,1.08
2023-05-09T11:07:47.923Z,1.03
2023-05-09T11:12:57.925Z,1.20
2023-05-09T11:18:08.836Z,1.29
2023-05-09T11:23:12.613Z,1.35
2023-05-09T11:28:29.486Z,1.48
2023-05-09T11:33:37.005Z,1.42
2023-05-09T11:38:42.692Z,1.57
2023-05-09T11:43:47.685Z,1.74
2023-05-09T11:48:51.354Z,1.51
2023-05-09T11:53:55.051Z,1.72
2023-05-09T11:58:59.916Z,1.80
2023-05-09T12:04:04.264Z,1.66
2023-05-09T12:09:10.438Z,1.89
2023-05-09T12:14:27.156Z,1.75
2023-05-09T12:19:30.684Z,1.93
2023-05-09T12:24:36.344Z,1.91
2023-05-09T12:29:46.239Z,1.73
2023-05-09T12:34:50.315Z,1.60
2023-05-09T12:40:05.078Z,1.78
2023-05-09T12:45:12.915Z,2.02
2023-05-09T12:50:16.755Z,2.04
2023-05-09T12:55:21.165Z,2.08
2023-05-09T13:00:27.624Z,2.10
2023-05-09T13:05:35.377Z,2.14
2023-05-09T13:10:40.150Z,2.26
2023-05-09T13:15:49.309Z,2.40
2023-05-09T13:20:56.093Z,2.33
2023-05-09T13:26:00.142Z,2.40
2023-05-09T13:31:05.288Z,2.34
2023-05-09T13:36:12.085Z,2.45
2023-05-09T13:41:20.462Z,2.50
2023-05-09T13:46:25.980Z,2.47
2023-05-09T13:51:29.954Z,2.48
2023-05-09T13:56:33.420Z,2.38
2023-05-09T14:01:38.414Z,2.63
2023-05-09T14:06:47.916Z,2.39
2023-05-09T14:11:53.178Z,2.40
2023-05-09T14:16:59.095Z,2.54
2023-05-09T14:22:05.161Z,2.39
2023-05-09T14:27:11.160Z,2.43
2023-05-09T14:32:19.296Z,2.20
2023-05-09T14:37:48.248Z,2.39
2023-05-09T14:43:15.221Z,2.27
2023-05-09T14:48:20.152Z,2.32
2023-05-09T14:54:13.153Z,2.53
2023-05-09T14:59:00.603Z,2.28
2023-05-09T15:10:42.430Z,2.28
2023-05-09T15:16:03.170Z,2.30
2023-05-09T15:21:09.523Z,2.18
2023-05-09T15:26:44.600Z,2.19
2023-05-09T15:32:52.823Z,2.00
2023-05-09T15:38:01.466Z,1.97
2023-05-09T15:43:09.904Z,2.15
2023-05-09T15:48:16.767Z,2.07
2023-05-09T15:53:23.220Z,2.07
2023-05-09T15:58:27.481Z,2.15
2023-05-09T16:03:30.989Z,2.09
2023-05-09T16:08:35.931Z,2.00
2023-05-09T16:13:39.761Z,1.98
2023-05-09T16:18:43.533Z,1.97
2023-05-09T16:23:50.463Z,1.94
2023-05-09T16:28:54.148Z,1.81
2023-05-09T16:33:58.141Z,1.88
2023-05-09T16:39:03.209Z,2.15
2023-05-09T16:44:06.696Z,2.03
2023-05-09T16:49:10.420Z,1.85
2023-05-09T16:54:16.002Z,1.74
2023-05-09T16:59:20.106Z,1.60
2023-05-09T17:04:25.673Z,1.50
2023-05-09T17:09:33.706Z,1.40
2023-05-09T17:14:37.099Z,1.39
2023-05-09T17:19:40.735Z,1.36
2023-05-09T17:24:45.772Z,1.27
2023-05-09T17:29:50.112Z,1.00
2023-05-09T17:34:54.399Z,0.90
2023-05-09T17:40:06.091Z,0.87
2023-05-09T17:45:14.319Z,0.80
2023-05-09T17:50:22.976Z,0.84
2023-05-09T17:55:28.294Z,0.57
2023-05-09T18:00:46.563Z,0.50
2023-05-09T18:05:56.217Z,0.37
2023-05-09T18:11:11.840Z,0.20
2023-05-09T18:16:25.453Z,0.19
2023-05-09T18:21:30.615Z,0.07
2023-05-09T18:26:35.944Z,-0.08
2023-05-09T18:31:41.498Z,-0.20
2023-05-09T18:43:16.581Z,-0.52
2023-05-09T18:48:20.626Z,-0.69
2023-05-09T18:59:17.682Z,-1.00
2023-05-09T19:04:58.898Z,-1.02
2023-05-09T19:10:25.781Z,-1.34
2023-05-09T19:21:05.969Z,-1.55
2023-05-09T19:26:11.251Z,-1.67
2023-05-09T19:31:31.467Z,-1.79
2023-05-09T19:36:36.877Z,-1.94
2023-05-09T19:42:04.621Z,-2.12
2023-05-09T19:47:18.558Z,-2.21
2023-05-09T19:52:32.417Z,-2.28
2023-05-09T19:57:40.255Z,-2.33
2023-05-09T20:02:44.567Z,-2.48
2023-05-09T20:07:58.323Z,-2.59
2023-05-09T20:13:04.069Z,-2.73
2023-05-09T20:18:09.783Z,-2.82
2023-05-09T20:23:17.247Z,-2.95
2023-05-09T20:28:24.201Z,-2.94
2023-05-09T20:33:27.986Z,-3.02
2023-05-09T20:38:39.008Z,-3.14
2023-05-09T20:43:44.088Z,-3.22
2023-05-09T20:48:48.567Z,-3.32
2023-05-09T20:53:53.554Z,-3.36
2023-05-09T20:58:59.985Z,-3.43
2023-05-09T21:04:03.982Z,-3.49
2023-05-09T21:09:10.114Z,-3.61
2023-05-09T21:14:13.651Z,-3.53
2023-05-09T21:19:17.287Z,-3.48
2023-05-09T21:24:22.305Z,-3.49
2023-05-09T21:29:25.712Z,-3.47
2023-05-09T21:34:29.639Z,-3.50
